createdAt,value
2023-05-03T00:02:10.510Z,3.30
2023-05-03T00:04:41.556Z,3.83
2023-05-03T00:07:10.113Z,3.30
2023-05-03T00:09:38.499Z,3.47
2023-05-03T00:12:07.163Z,3.63
2023-05-03T00:14:35.567Z,3.60
2023-05-03T00:17:04.017Z,3.97
2023-05-03T00:19:33.595Z,4.03
2023-05-03T00:22:03.960Z,3.70
2023-05-03T00:24:32.287Z,3.70
2023-05-03T00:27:00.896Z,3.93
2023-05-03T00:29:29.353Z,4.27
2023-05-03T00:31:57.788Z,3.53
2023-05-03T00:34:26.258Z,3.80
2023-05-03T00:36:54.786Z,3.63
2023-05-03T00:39:24.689Z,3.53
2023-05-03T00:41:58.051Z,4.27
2023-05-03T00:44:26.363Z,4.20
2023-05-03T00:46:55.014Z,4.27
2023-05-03T00:49:23.442Z,3.93
2023-05-03T00:51:52.032Z,3.83
2023-05-03T00:54:20.534Z,4.20
2023-05-03T00:56:52.252Z,4.13
2023-05-03T00:59:21.350Z,4.07
2023-05-03T01:01:50.138Z,4.07
2023-05-03T01:04:18.662Z,4.60
2023-05-03T01:06:47.397Z,4.27
2023-05-03T01:09:18.549Z,4.33
2023-05-03T01:11:48.771Z,4.93
2023-05-03T01:14:21.758Z,4.17
2023-05-03T01:16:50.956Z,4.37
2023-05-03T01:19:21.488Z,5.07
2023-05-03T01:21:49.900Z,4.90
2023-05-03T01:24:19.871Z,4.70
2023-05-03T01:26:49.690Z,5.00
2023-05-03T01:29:18.067Z,4.67
2023-05-03T01:31:49.281Z,4.93
2023-05-03T01:34:20.450Z,5.40
2023-05-03T01:36:48.941Z,4.90
2023-05-03T01:39:18.447Z,5.63
2023-05-03T01:41:47.060Z,4.90
2023-05-03T01:44:16.885Z,4.90
2023-05-03T01:46:45.538Z,5.03
2023-05-03T01:49:13.904Z,5.00
2023-05-03T01:51:42.293Z,4.97
2023-05-03T01:54:10.766Z,4.93
2023-05-03T01:56:39.894Z,4.83
2023-05-03T01:59:08.310Z,5.20
2023-05-03T02:01:38.076Z,5.10
2023-05-03T02:04:06.696Z,4.90
2023-05-03T02:06:35.090Z,4.73
2023-05-03T02:09:03.702Z,5.33
2023-05-03T02:11:32.256Z,5.13
2023-05-03T02:14:00.709Z,6.00
2023-05-03T02:16:29.331Z,5.03
2023-05-03T02:18:59.714Z,4.97
2023-05-03T02:21:28.503Z,5.03
2023-05-03T02:23:57.052Z,5.17
2023-05-03T02:26:25.411Z,5.03
2023-05-03T02:28:53.706Z,5.60
2023-05-03T02:31:22.236Z,5.20
2023-05-03T02:33:50.863Z,5.00
2023-05-03T02:36:20.672Z,4.97
2023-05-03T02:38:49.009Z,4.90
2023-05-03T02:41:17.613Z,4.70
2023-05-03T02:43:46.070Z,5.27
2023-05-03T02:46:14.550Z,4.90
2023-05-03T02:48:43.030Z,4.63
2023-05-03T02:51:11.409Z,4.67
2023-05-03T02:53:41.136Z,5.03
2023-05-03T02:56:09.847Z,5.37
2023-05-03T02:58:38.214Z,4.83
2023-05-03T03:01:06.745Z,4.93
2023-05-03T03:03:35.483Z,5.23
2023-05-03T03:06:04.044Z,4.40
2023-05-03T03:08:32.492Z,4.83
2023-05-03T03:11:02.374Z,4.30
2023-05-03T03:13:30.873Z,4.37
2023-05-03T03:15:59.273Z,4.37
2023-05-03T03:18:27.639Z,4.13
2023-05-03T03:20:56.053Z,4.00
2023-05-03T03:23:24.528Z,3.93
2023-05-03T03:25:53.123Z,3.93
2023-05-03T03:28:22.909Z,4.70
2023-05-03T03:30:51.288Z,4.30
2023-05-03T03:33:20.443Z,4.50
2023-05-03T03:35:50.173Z,4.07
2023-05-03T03:38:18.559Z,4.07
2023-05-03T03:40:46.973Z,3.97
2023-05-03T03:43:15.400Z,4.07
2023-05-03T03:45:45.235Z,4.00
2023-05-03T03:48:13.645Z,4.03
2023-05-03T03:50:42.056Z,3.67
2023-05-03T03:53:11.260Z,4.43
2023-05-03T03:55:39.915Z,3.30
2023-05-03T03:58:08.498Z,3.57
2023-05-03T04:00:37.228Z,4.17
2023-05-03T04:03:07.984Z,4.10
2023-05-03T04:05:36.706Z,3.67
2023-05-03T04:08:05.177Z,3.80
2023-05-03T04:10:33.519Z,3.67
2023-05-03T04:13:01.928Z,3.87
2023-05-03T04:15:30.504Z,3.77
2023-05-03T04:17:58.995Z,3.70
2023-05-03T04:20:29.556Z,3.70
2023-05-03T04:22:58.002Z,3.63
2023-05-03T04:25:26.828Z,4.70
2023-05-03T04:27:55.742Z,4.07
2023-05-03T04:30:24.786Z,3.40
2023-05-03T04:32:54.484Z,4.23
2023-05-03T04:35:23.043Z,3.70
2023-05-03T04:37:52.967Z,3.50
2023-05-03T04:40:21.390Z,3.70
2023-05-03T04:42:49.843Z,3.70
2023-05-03T04:45:18.756Z,3.60
2023-05-03T04:47:48.023Z,4.07
2023-05-03T04:50:16.614Z,3.63
2023-05-03T04:52:45.129Z,4.30
2023-05-03T04:55:15.335Z,3.80
2023-05-03T04:57:44.088Z,3.97
2023-05-03T05:00:13.181Z,3.70
2023-05-03T05:02:41.686Z,4.00
2023-05-03T05:05:10.646Z,3.60
2023-05-03T05:07:39.090Z,3.37
2023-05-03T05:10:08.122Z,3.60
2023-05-03T05:12:37.981Z,4.17
2023-05-03T05:15:06.987Z,3.63
2023-05-03T05:17:35.963Z,4.07
2023-05-03T05:20:07.185Z,3.73
2023-05-03T05:22:35.906Z,4.07
2023-05-03T05:25:04.465Z,3.70
2023-05-03T05:27:33.023Z,3.70
2023-05-03T05:30:03.031Z,3.87
2023-05-03T05:32:31.717Z,4.00
2023-05-03T05:35:00.157Z,3.97
2023-05-03T05:37:28.803Z,4.00
2023-05-03T05:39:57.325Z,3.73
2023-05-03T05:42:26.733Z,3.60
2023-05-03T05:44:55.214Z,3.60
2023-05-03T05:47:25.439Z,3.50
2023-05-03T05:49:54.019Z,3.43
2023-05-03T05:52:22.437Z,3.57
2023-05-03T05:54:50.923Z,3.60
2023-05-03T05:57:19.310Z,3.43
2023-05-03T05:59:47.710Z,3.23
2023-05-03T06:02:16.897Z,3.47
2023-05-03T06:04:47.350Z,3.00
2023-05-03T06:07:16.250Z,3.23
2023-05-03T06:09:44.706Z,3.40
2023-05-03T06:12:13.242Z,3.50
2023-05-03T06:14:51.724Z,3.60
2023-05-03T06:17:25.593Z,3.10
2023-05-03T06:19:55.542Z,3.10
2023-05-03T06:22:23.919Z,3.37
2023-05-03T06:24:52.889Z,3.23
2023-05-03T06:27:21.310Z,3.17
2023-05-03T06:29:50.118Z,3.50
2023-05-03T06:32:18.566Z,3.20
2023-05-03T06:34:46.992Z,2.97
2023-05-03T06:37:16.719Z,3.33
2023-05-03T06:39:45.440Z,2.57
2023-05-03T06:42:13.988Z,2.57
2023-05-03T06:44:42.505Z,2.93
2023-05-03T06:47:10.910Z,2.50
2023-05-03T06:49:39.285Z,2.90
2023-05-03T06:52:08.843Z,2.70
2023-05-03T06:54:41.420Z,3.00
2023-05-03T06:57:10.752Z,2.70
2023-05-03T06:59:39.149Z,2.43
2023-05-03T07:02:07.955Z,2.50
2023-05-03T07:04:37.765Z,2.23
2023-05-03T07:07:06.702Z,2.43
2023-05-03T07:09:42.540Z,2.43
2023-05-03T07:12:13.614Z,2.63
2023-05-03T07:14:42.078Z,2.40
2023-05-03T07:17:10.667Z,2.20
2023-05-03T07:19:39.628Z,2.10
2023-05-03T07:22:08.074Z,2.13
2023-05-03T07:24:36.776Z,2.00
2023-05-03T07:27:05.487Z,1.70
2023-05-03T07:29:35.325Z,1.50
2023-05-03T07:32:03.765Z,1.83
2023-05-03T07:34:32.832Z,2.03
2023-05-03T07:37:01.418Z,2.13
2023-05-03T07:39:29.901Z,2.00
2023-05-03T07:41:58.356Z,1.87
2023-05-03T07:44:26.781Z,2.00
2023-05-03T07:46:56.484Z,1.90
2023-05-03T07:49:25.059Z,1.93
2023-05-03T07:51:53.500Z,1.50
2023-05-03T07:54:21.916Z,2.20
2023-05-03T07:56:50.349Z,2.17
2023-05-03T07:59:18.845Z,1.77
2023-05-03T08:01:47.252Z,1.70
2023-05-03T08:04:17.600Z,2.20
2023-05-03T08:06:46.748Z,2.20
2023-05-03T08:09:15.906Z,1.90
2023-05-03T08:11:44.741Z,2.10
2023-05-03T08:14:13.863Z,2.07
2023-05-03T08:16:42.348Z,2.30
2023-05-03T08:19:10.802Z,2.30
2023-05-03T08:21:40.646Z,1.87
2023-05-03T08:24:10.206Z,1.93
2023-05-03T08:26:38.636Z,2.33
2023-05-03T08:29:07.291Z,2.13
2023-05-03T08:31:36.043Z,2.23
2023-05-03T08:34:06.685Z,2.00
2023-05-03T08:36:35.729Z,2.20
2023-05-03T08:39:06.759Z,2.23
2023-05-03T08:41:35.148Z,2.23
2023-05-03T08:44:05.520Z,2.53
2023-05-03T08:46:37.106Z,2.33
2023-05-03T08:49:06.796Z,2.40
2023-05-03T08:51:35.305Z,2.07
2023-05-03T08:54:05.622Z,2.00
2023-05-03T08:56:34.945Z,2.00
2023-05-03T08:59:07.987Z,2.47
2023-05-03T09:01:37.477Z,2.10
2023-05-03T09:04:06.212Z,2.20
2023-05-03T09:06:37.565Z,2.53
2023-05-03T09:09:09.693Z,2.10
2023-05-03T09:11:38.488Z,2.67
2023-05-03T09:14:10.198Z,2.80
2023-05-03T09:16:38.897Z,2.23
2023-05-03T09:19:09.476Z,2.73
2023-05-03T09:21:37.972Z,2.10
2023-05-03T09:24:15.156Z,2.30
2023-05-03T09:26:43.587Z,2.50
2023-05-03T09:29:12.153Z,2.60
2023-05-03T09:31:40.700Z,2.43
2023-05-03T09:34:23.116Z,2.30
2023-05-03T09:36:51.433Z,2.40
2023-05-03T09:39:21.123Z,2.70
2023-05-03T09:41:49.624Z,2.50
2023-05-03T09:44:18.245Z,2.70
2023-05-03T09:47:01.563Z,2.30
2023-05-03T09:49:29.920Z,2.40
2023-05-03T09:51:58.214Z,2.50
2023-05-03T09:54:28.103Z,2.63
2023-05-03T09:56:57.584Z,2.40
2023-05-03T09:59:26.080Z,2.70
2023-05-03T10:01:54.923Z,2.40
2023-05-03T10:04:23.332Z,2.40
2023-05-03T10:06:52.635Z,2.30
2023-05-03T10:09:26.365Z,2.97
2023-05-03T10:11:56.793Z,3.33
2023-05-03T10:14:25.219Z,3.30
2023-05-03T10:16:54.218Z,2.47
2023-05-03T10:19:23.302Z,2.53
2023-05-03T10:21:57.244Z,2.87
2023-05-03T10:24:25.722Z,2.70
2023-05-03T10:26:55.701Z,2.97
2023-05-03T10:29:46.449Z,2.63
2023-05-03T10:32:29.611Z,2.57
2023-05-03T10:34:58.977Z,2.87
2023-05-03T10:37:28.105Z,2.77
2023-05-03T10:39:57.939Z,2.90
2023-05-03T10:42:29.297Z,2.93
2023-05-03T10:44:58.193Z,2.77
2023-05-03T10:47:26.642Z,2.80
2023-05-03T10:50:13.928Z,3.60
2023-05-03T10:52:49.107Z,2.83
2023-05-03T10:55:18.211Z,3.50
2023-05-03T10:57:48.134Z,3.10
2023-05-03T11:00:17.374Z,3.07
2023-05-03T11:03:01.525Z,3.40
2023-05-03T11:05:30.428Z,2.80
2023-05-03T11:08:09.255Z,3.10
2023-05-03T11:10:37.725Z,3.30
2023-05-03T11:13:07.822Z,3.00
2023-05-03T11:15:36.402Z,3.50
2023-05-03T11:18:04.954Z,4.03
2023-05-03T11:20:33.663Z,3.47
2023-05-03T11:23:02.601Z,3.10
2023-05-03T11:25:31.037Z,3.50
2023-05-03T11:27:59.448Z,3.40
2023-05-03T11:30:29.642Z,3.40
2023-05-03T11:32:58.157Z,3.30
2023-05-03T11:35:27.127Z,3.67
2023-05-03T11:37:55.539Z,3.50
2023-05-03T11:40:23.981Z,3.10
2023-05-03T11:42:53.389Z,3.37
2023-05-03T11:45:23.244Z,3.70
2023-05-03T11:47:53.285Z,3.40
2023-05-03T11:50:22.511Z,3.37
2023-05-03T11:52:51.074Z,3.80
2023-05-03T11:55:19.468Z,3.47
2023-05-03T11:57:48.276Z,4.07
2023-05-03T12:00:18.212Z,3.27
2023-05-03T12:02:46.734Z,3.60
2023-05-03T12:05:17.593Z,3.40
2023-05-03T12:07:47.660Z,3.20
2023-05-03T12:10:23.905Z,3.50
2023-05-03T12:12:56.945Z,3.47
2023-05-03T12:15:30.260Z,3.20
2023-05-03T12:18:00.262Z,3.40
2023-05-03T12:23:04.510Z,3.80
2023-05-03T12:25:34.323Z,3.67
2023-05-03T12:28:17.686Z,3.70
2023-05-03T12:30:47.722Z,3.40
2023-05-03T12:33:21.644Z,4.17
2023-05-03T12:35:54.010Z,3.90
2023-05-03T12:38:24.200Z,3.63
2023-05-03T12:40:54.693Z,3.63
2023-05-03T12:43:23.511Z,3.53
2023-05-03T12:46:07.253Z,3.63
2023-05-03T12:48:40.570Z,3.63
2023-05-03T12:53:44.799Z,3.23
2023-05-03T12:56:15.733Z,3.63
2023-05-03T12:59:11.998Z,3.70
2023-05-03T13:02:38.518Z,3.50
2023-05-03T13:07:00.245Z,3.97
2023-05-03T13:09:38.556Z,3.57
2023-05-03T13:12:20.496Z,3.53
2023-05-03T13:14:49.800Z,4.10
2023-05-03T13:17:18.291Z,3.20
2023-05-03T13:19:47.283Z,3.40
2023-05-03T13:22:17.124Z,3.63
2023-05-03T13:24:45.871Z,3.97
2023-05-03T13:27:14.416Z,4.10
2023-05-03T13:29:42.862Z,4.10
2023-05-03T13:32:12.437Z,3.90
2023-05-03T13:34:41.065Z,3.60
2023-05-03T13:37:09.690Z,4.33
2023-05-03T13:39:39.410Z,3.70
2023-05-03T13:42:07.826Z,3.47
2023-05-03T13:44:36.146Z,3.50
2023-05-03T13:47:04.631Z,3.70
2023-05-03T13:49:33.084Z,3.70
2023-05-03T13:52:01.448Z,3.30
2023-05-03T13:54:31.575Z,3.50
2023-05-03T13:57:02.102Z,3.80
2023-05-03T13:59:30.859Z,3.70
2023-05-03T14:02:00.873Z,3.27
2023-05-03T14:04:30.799Z,3.43
2023-05-03T14:07:03.107Z,3.73
2023-05-03T14:09:31.699Z,3.97
2023-05-03T14:12:00.050Z,3.37
2023-05-03T14:14:29.959Z,3.70
2023-05-03T14:16:58.432Z,3.60
2023-05-03T14:19:26.875Z,3.40
2023-05-03T14:21:59.580Z,3.57
2023-05-03T14:24:28.100Z,3.57
2023-05-03T14:26:56.663Z,3.83
2023-05-03T14:29:25.100Z,3.67
2023-05-03T14:31:55.772Z,3.97
2023-05-03T14:34:24.369Z,3.70
2023-05-03T14:36:52.722Z,3.87
2023-05-03T14:39:21.037Z,3.80
2023-05-03T14:41:51.149Z,3.97
2023-05-03T14:44:20.602Z,3.97
2023-05-03T14:46:49.054Z,3.87
2023-05-03T14:49:19.256Z,3.87
2023-05-03T14:51:47.703Z,4.03
2023-05-03T14:54:16.337Z,3.80
2023-05-03T14:56:44.706Z,4.47
2023-05-03T14:59:13.218Z,4.17
2023-05-03T15:01:41.608Z,3.80
2023-05-03T15:04:10.669Z,4.10
2023-05-03T15:06:41.218Z,3.73
2023-05-03T15:09:11.281Z,4.20
2023-05-03T15:11:39.640Z,4.30
2023-05-03T15:14:09.202Z,3.80
2023-05-03T15:16:37.718Z,4.70
2023-05-03T15:19:07.308Z,4.13
2023-05-03T15:21:47.576Z,4.30
2023-05-03T15:24:16.024Z,4.13
2023-05-03T15:26:44.546Z,4.50
2023-05-03T15:29:13.051Z,4.77
2023-05-03T15:31:42.050Z,4.70
2023-05-03T15:34:11.294Z,4.10
2023-05-03T15:36:40.804Z,4.30
2023-05-03T15:39:10.671Z,3.93
2023-05-03T15:41:39.258Z,3.67
2023-05-03T15:44:09.757Z,4.10
2023-05-03T15:46:39.628Z,4.00
2023-05-03T15:49:09.816Z,3.63
2023-05-03T15:51:38.227Z,3.90
2023-05-03T15:54:07.361Z,4.17
2023-05-03T15:56:37.854Z,3.50
2023-05-03T15:59:07.515Z,4.47
2023-05-03T16:01:37.164Z,4.13
2023-05-03T16:04:07.750Z,3.97
2023-05-03T16:06:36.139Z,4.17
2023-05-03T16:09:06.551Z,4.37
2023-05-03T16:11:35.831Z,4.00
2023-05-03T16:14:09.359Z,3.90
2023-05-03T16:16:39.089Z,3.97
2023-05-03T16:19:08.932Z,4.00
2023-05-03T16:21:37.349Z,4.30
2023-05-03T16:24:05.910Z,4.23
2023-05-03T16:26:34.604Z,3.90
2023-05-03T16:29:03.040Z,3.57
2023-05-03T16:31:33.114Z,4.30
2023-05-03T16:34:01.931Z,4.70
2023-05-03T16:36:32.029Z,4.17
2023-05-03T16:39:00.447Z,3.87
2023-05-03T16:41:28.848Z,4.27
2023-05-03T16:43:57.419Z,4.13
2023-05-03T16:46:25.950Z,4.73
2023-05-03T16:48:55.830Z,4.40
2023-05-03T16:51:24.193Z,4.20
2023-05-03T16:53:53.411Z,4.63
2023-05-03T16:56:22.860Z,4.40
2023-05-03T16:58:51.401Z,4.20
2023-05-03T17:01:19.938Z,4.20
2023-05-03T17:03:48.417Z,4.10
2023-05-03T17:06:18.882Z,4.37
2023-05-03T17:08:47.600Z,4.77
2023-05-03T17:11:16.157Z,4.50
2023-05-03T17:13:45.067Z,4.70
2023-05-03T17:16:15.484Z,4.30
2023-05-03T17:18:44.104Z,4.27
2023-05-03T17:21:12.990Z,4.30
2023-05-03T17:23:42.866Z,4.30
2023-05-03T17:26:12.454Z,4.70
2023-05-03T17:28:40.921Z,4.77
2023-05-03T17:31:09.370Z,4.50
2023-05-03T17:33:37.908Z,4.23
2023-05-03T17:36:06.459Z,4.40
2023-05-03T17:38:34.968Z,4.63
2023-05-03T17:41:07.885Z,4.53
2023-05-03T17:43:36.289Z,4.53
2023-05-03T17:46:08.982Z,4.23
2023-05-03T17:48:37.924Z,5.00
2023-05-03T17:51:06.534Z,4.57
2023-05-03T17:53:34.881Z,4.43
2023-05-03T17:56:03.340Z,4.53
2023-05-03T17:58:33.242Z,4.80
2023-05-03T18:01:01.613Z,4.63
2023-05-03T18:03:31.523Z,4.97
2023-05-03T18:06:00.278Z,5.30
2023-05-03T18:08:28.960Z,5.97
2023-05-03T18:10:57.460Z,5.47
2023-05-03T18:13:26.959Z,5.53
2023-05-03T18:15:57.023Z,4.93
2023-05-03T18:18:25.723Z,5.43
2023-05-03T18:21:00.726Z,5.10
2023-05-03T18:23:30.333Z,5.30
2023-05-03T18:25:59.863Z,5.20
2023-05-03T18:28:28.274Z,5.20
2023-05-03T18:30:58.158Z,5.60
2023-05-03T18:33:26.829Z,5.63
2023-05-03T18:35:55.671Z,6.33
2023-05-03T18:38:24.062Z,5.80
2023-05-03T18:40:52.484Z,5.07
2023-05-03T18:43:20.984Z,5.20
2023-05-03T18:45:49.579Z,4.90
2023-05-03T18:48:19.513Z,5.07
2023-05-03T18:50:47.929Z,5.20
2023-05-03T18:53:16.520Z,6.47
2023-05-03T18:55:45.296Z,5.57
2023-05-03T18:58:13.744Z,5.00
2023-05-03T19:00:42.423Z,5.13
2023-05-03T19:03:10.920Z,5.43
2023-05-03T19:05:40.740Z,9.83
2023-05-03T19:08:09.478Z,7.40
2023-05-03T19:10:37.899Z,6.00
2023-05-03T19:13:07.453Z,6.67
2023-05-03T19:15:35.878Z,7.70
2023-05-03T19:18:04.429Z,5.70
2023-05-03T19:20:33.154Z,6.03
2023-05-03T19:23:03.008Z,5.83
2023-05-03T19:25:31.810Z,5.97
2023-05-03T19:28:00.361Z,6.70
2023-05-03T19:30:28.953Z,7.77
2023-05-03T19:32:57.400Z,6.43
2023-05-03T19:35:25.869Z,6.00
2023-05-03T19:37:54.216Z,6.70
2023-05-03T19:40:24.938Z,6.00
2023-05-03T19:42:54.791Z,5.50
2023-05-03T19:45:23.846Z,6.37
2023-05-03T19:47:52.226Z,8.03
2023-05-03T19:50:20.716Z,6.70
2023-05-03T19:52:49.338Z,6.80
2023-05-03T19:55:17.874Z,6.77
2023-05-03T19:57:47.615Z,6.50
2023-05-03T20:00:16.362Z,10.00
2023-05-03T20:02:44.829Z,9.47
2023-05-03T20:05:13.235Z,13.73
2023-05-03T20:07:41.629Z,9.60
2023-05-03T20:10:10.531Z,10.47
2023-05-03T20:12:39.092Z,8.00
2023-05-03T20:15:09.750Z,6.33
2023-05-03T20:17:38.746Z,6.90
2023-05-03T20:20:11.194Z,6.70
2023-05-03T20:22:39.718Z,6.67
2023-05-03T20:25:08.653Z,7.00
2023-05-03T20:27:37.068Z,6.77
2023-05-03T20:30:06.294Z,6.60
2023-05-03T20:32:37.069Z,7.17
2023-05-03T20:35:05.969Z,6.33
2023-05-03T20:37:35.861Z,6.90
2023-05-03T20:40:05.861Z,6.57
2023-05-03T20:42:34.619Z,6.30
2023-05-03T20:45:03.017Z,6.63
2023-05-03T20:47:31.522Z,6.43
2023-05-03T20:50:01.942Z,6.57
2023-05-03T20:52:30.643Z,7.60
2023-05-03T20:54:59.134Z,6.80
2023-05-03T20:57:27.707Z,6.23
2023-05-03T20:59:56.111Z,6.67
2023-05-03T21:02:24.766Z,6.50
2023-05-03T21:04:53.267Z,6.20
2023-05-03T21:07:23.091Z,6.63
2023-05-03T21:09:51.610Z,6.27
2023-05-03T21:12:19.975Z,6.97
2023-05-03T21:14:48.820Z,6.97
2023-05-03T21:17:17.112Z,7.70
2023-05-03T21:19:45.931Z,6.50
2023-05-03T21:22:14.400Z,6.23
2023-05-03T21:24:44.341Z,6.50
2023-05-03T21:27:12.703Z,6.20
2023-05-03T21:29:41.233Z,6.40
2023-05-03T21:32:09.844Z,6.03
2023-05-03T21:34:38.505Z,6.60
2023-05-03T21:37:07.259Z,6.20
2023-05-03T21:39:36.870Z,7.17
2023-05-03T21:42:06.946Z,6.73
2023-05-03T21:44:35.366Z,6.17
2023-05-03T21:47:04.047Z,6.63
2023-05-03T21:49:32.524Z,7.40
2023-05-03T21:52:00.918Z,6.20
2023-05-03T21:54:29.915Z,7.03
2023-05-03T21:56:59.180Z,6.43
2023-05-03T21:59:28.903Z,6.50
2023-05-03T22:01:57.320Z,6.40
2023-05-03T22:04:25.735Z,6.53
2023-05-03T22:06:54.330Z,5.80
2023-05-03T22:09:22.748Z,6.30
2023-05-03T22:11:51.398Z,6.27
2023-05-03T22:14:20.168Z,5.83
2023-05-03T22:16:50.039Z,6.43
2023-05-03T22:19:18.411Z,6.60
2023-05-03T22:21:47.046Z,6.70
2023-05-03T22:24:15.465Z,6.37
2023-05-03T22:26:43.993Z,6.50
2023-05-03T22:29:12.480Z,6.47
2023-05-03T22:31:41.644Z,6.10
2023-05-03T22:34:11.508Z,6.37
2023-05-03T22:36:39.915Z,6.53
2023-05-03T22:39:08.311Z,6.53
2023-05-03T22:41:37.115Z,6.47
2023-05-03T22:44:05.516Z,6.90
2023-05-03T22:46:34.049Z,6.20
2023-05-03T22:49:02.464Z,6.10
2023-05-03T22:51:32.564Z,6.27
2023-05-03T22:54:01.020Z,6.40
2023-05-03T22:56:29.598Z,6.20
2023-05-03T22:58:58.132Z,6.50
2023-05-03T23:01:27.252Z,6.30
2023-05-03T23:03:55.898Z,6.43
2023-05-03T23:06:25.061Z,6.83
2023-05-03T23:08:54.781Z,6.47
2023-05-03T23:11:23.373Z,6.70
2023-05-03T23:13:51.886Z,6.20
2023-05-03T23:16:21.476Z,6.63
2023-05-03T23:18:49.916Z,6.97
2023-05-03T23:21:18.563Z,6.20
2023-05-03T23:23:47.001Z,6.87
2023-05-03T23:26:16.805Z,6.73
2023-05-03T23:28:46.315Z,7.40
2023-05-03T23:31:15.235Z,6.53
2023-05-03T23:33:44.177Z,6.77
2023-05-03T23:36:12.592Z,6.93
2023-05-03T23:38:41.163Z,6.47
2023-05-03T23:41:09.617Z,7.53
2023-05-03T23:43:39.365Z,7.00
2023-05-03T23:46:07.777Z,7.03
2023-05-03T23:48:36.190Z,7.90
2023-05-03T23:51:04.624Z,7.10
2023-05-03T23:53:33.098Z,7.17
2023-05-03T23:56:01.564Z,7.90
2023-05-03T23:58:30.109Z,7.87
